Time;durP1;ratioP1;P1;durP2;ratioP2;P2;SDS_P1;SDS_P2;PMS_P1;PMS_P2;Temp;Humidity;BMP_temperature;BMP_pressure;BME280_temperature;BME280_humidity;BME280_pressure;Samples;Min_cycle;Max_cycle;Signal;HPM_P1;HPM_P2
2022/04/01 00:01:00;;;;;;;8.70;7.60;;;4.20;99.90;;;;;;7343404;19;109345;-82
2022/04/01 00:03:27;;;;;;;9.00;8.20;;;4.10;99.90;;;;;;7343880;19;109213;-83
2022/04/01 00:05:54;;;;;;;9.93;8.97;;;4.10;99.90;;;;;;7348920;19;108496;-83
2022/04/01 00:08:21;;;;;;;9.53;8.63;;;4.10;99.90;;;;;;7345498;19;109983;-82
2022/04/01 00:10:48;;;;;;;10.83;9.73;;;4.10;99.90;;;;;;7342975;19;108738;-83
2022/04/01 00:13:15;;;;;;;9.93;9.03;;;3.90;99.90;;;;;;7344633;19;108901;-83
2022/04/01 00:15:42;;;;;;;10.13;9.13;;;3.90;99.90;;;;;;7344989;19;110431;-83
2022/04/01 00:18:10;;;;;;;10.47;9.47;;;3.90;99.90;;;;;;7344782;19;109893;-83
2022/04/01 00:20:38;;;;;;;10.33;9.33;;;3.90;99.90;;;;;;7345238;19;109876;-82
2022/04/01 00:23:05;;;;;;;10.77;9.77;;;3.80;99.90;;;;;;7342435;19;114351;-82
2022/04/01 00:25:32;;;;;;;10.57;9.57;;;3.80;99.90;;;;;;7343826;19;108497;-83
2022/04/01 00:27:59;;;;;;;10.60;9.60;;;3.80;99.90;;;;;;7348304;19;108988;-82
2022/04/01 00:30:26;;;;;;;11.87;9.67;;;3.80;99.90;;;;;;7342656;19;108428;-82
2022/04/01 00:32:53;;;;;;;9.60;8.70;;;3.80;99.90;;;;;;7346108;19;109556;-89
2022/04/01 00:35:21;;;;;;;9.33;8.27;;;3.90;99.90;;;;;;7346943;19;109414;-88
2022/04/01 00:37:48;;;;;;;8.00;7.30;;;4.00;99.90;;;;;;7347953;19;109355;-89
2022/04/01 00:40:15;;;;;;;8.17;7.37;;;4.20;99.90;;;;;;7346419;19;111043;-87
2022/04/01 00:42:44;;;;;;;8.70;7.90;;;4.30;99.90;;;;;;7343984;19;109960;-86
2022/04/01 00:45:12;;;;;;;7.90;7.20;;;4.30;99.90;;;;;;7342226;19;109255;-87
2022/04/01 00:47:39;;;;;;;7.00;6.33;;;4.30;99.90;;;;;;7346148;19;109392;-87
2022/04/01 00:50:07;;;;;;;7.00;6.30;;;4.20;99.90;;;;;;7347280;19;110285;-87
2022/04/01 00:52:36;;;;;;;6.33;5.77;;;4.20;99.90;;;;;;7341915;19;112017;-87
2022/04/01 00:55:08;;;;;;;5.33;4.83;;;4.20;99.90;;;;;;7339005;19;109595;-88
2022/04/01 00:57:36;;;;;;;5.60;5.10;;;4.20;99.90;;;;;;7343082;19;110851;-87
2022/04/01 01:00:08;;;;;;;5.30;4.77;;;4.20;99.90;;;;;;7345073;19;109827;-87
2022/04/01 01:02:39;;;;;;;5.87;5.30;;;4.20;99.90;;;;;;7340809;19;110637;-86
2022/04/01 01:05:07;;;;;;;6.17;4.53;;;4.10;99.90;;;;;;7339616;19;109911;-86
2022/04/01 01:07:36;;;;;;;4.53;4.03;;;4.00;99.90;;;;;;7342291;19;109481;-87
2022/04/01 01:10:04;;;;;;;5.17;4.30;;;4.10;99.90;;;;;;7344958;19;109753;-88
2022/04/01 01:12:31;;;;;;;5.90;4.17;;;4.10;99.90;;;;;;7343267;19;109326;-86
2022/04/01 01:15:07;;;;;;;4.53;4.13;;;4.00;99.90;;;;;;7342392;19;111380;-88
2022/04/01 01:17:34;;;;;;;4.27;3.97;;;3.90;99.90;;;;;;7343691;19;108338;-86
2022/04/01 01:20:15;;;;;;;4.30;3.90;;;3.80;99.90;;;;;;7343276;19;113088;-89
2022/04/01 01:22:47;;;;;;;4.10;3.70;;;3.90;99.90;;;;;;7342306;19;109324;-87
2022/04/01 01:25:15;;;;;;;3.90;3.50;;;3.90;99.90;;;;;;7343200;19;108504;-87
2022/04/01 01:27:43;;;;;;;3.10;2.80;;;3.90;99.90;;;;;;7343672;19;112098;-88
2022/04/01 01:30:11;;;;;;;3.13;2.87;;;3.90;99.90;;;;;;7342406;19;109237;-87
2022/04/01 01:32:39;;;;;;;3.30;3.00;;;3.90;99.90;;;;;;7350140;19;110205;-88
2022/04/01 01:35:10;;;;;;;3.27;2.97;;;3.80;99.90;;;;;;7346224;19;110374;-88
2022/04/01 01:37:38;;;;;;;2.87;2.07;;;3.80;99.90;;;;;;7344605;19;109072;-88
2022/04/01 01:40:07;;;;;;;4.70;2.67;;;3.80;99.90;;;;;;7344276;19;109674;-89
2022/04/01 01:42:34;;;;;;;3.10;2.80;;;3.80;99.90;;;;;;7342591;19;110759;-87
2022/04/01 01:45:01;;;;;;;4.20;2.53;;;3.70;99.90;;;;;;7345774;19;110006;-87
2022/04/01 01:47:28;;;;;;;3.47;3.10;;;3.70;99.90;;;;;;7343236;19;111179;-89
2022/04/01 01:55:29;;;;;;;3.00;2.60;;;3.50;99.90;;;;;;7347848;19;111838;-90
2022/04/01 01:57:56;;;;;;;2.60;2.33;;;3.40;99.90;;;;;;7347307;19;108646;-89
2022/04/01 02:00:23;;;;;;;4.97;2.40;;;3.40;99.90;;;;;;7343950;19;109468;-89
2022/04/01 02:02:51;;;;;;;4.03;2.40;;;3.40;99.90;;;;;;7343272;19;110658;-88
2022/04/01 02:05:18;;;;;;;2.67;2.30;;;3.40;99.90;;;;;;7339022;19;108502;-88
2022/04/01 02:07:47;;;;;;;2.97;2.30;;;3.40;99.90;;;;;;7342745;19;108468;-88
2022/04/01 02:10:15;;;;;;;4.70;2.73;;;3.40;99.90;;;;;;7340537;19;110663;-90
2022/04/01 02:12:43;;;;;;;2.43;2.20;;;3.40;99.90;;;;;;7344730;19;108272;-90
2022/04/01 02:15:11;;;;;;;4.87;2.20;;;3.40;99.90;;;;;;7347331;19;108255;-90
2022/04/01 02:17:42;;;;;;;2.70;2.17;;;3.40;99.90;;;;;;7347377;19;110250;-90
2022/04/01 02:20:10;;;;;;;3.10;2.00;;;3.40;99.90;;;;;;7340806;19;111560;-89
2022/04/01 02:22:38;;;;;;;2.30;1.97;;;3.40;99.90;;;;;;7341042;19;109742;-89
2022/04/01 02:25:11;;;;;;;2.87;2.57;;;3.50;99.90;;;;;;7342978;19;108514;-88
2022/04/01 02:27:39;;;;;;;2.50;2.00;;;3.40;99.90;;;;;;7343043;19;109093;-90
2022/04/01 02:30:10;;;;;;;2.73;2.30;;;3.40;99.90;;;;;;7342270;19;109571;-90
2022/04/01 02:32:42;;;;;;;2.83;2.00;;;3.40;99.90;;;;;;7341915;19;110896;-89
2022/04/01 02:35:10;;;;;;;2.30;1.90;;;3.40;99.90;;;;;;7341763;19;109376;-90
2022/04/01 02:37:39;;;;;;;2.90;2.00;;;3.50;99.90;;;;;;7342719;19;111729;-90
2022/04/01 02:40:07;;;;;;;2.57;2.00;;;3.40;99.90;;;;;;7348166;19;109192;-87
2022/04/01 02:42:34;;;;;;;2.30;2.10;;;3.40;99.90;;;;;;7340856;19;110140;-89
2022/04/01 02:45:02;;;;;;;2.27;2.07;;;3.40;99.90;;;;;;7341016;19;109218;-88
2022/04/01 02:47:29;;;;;;;3.00;2.10;;;3.30;99.90;;;;;;7341596;19;109692;-89
2022/04/01 02:49:56;;;;;;;2.37;2.10;;;3.30;99.90;;;;;;7341147;19;110848;-89
2022/04/01 02:52:24;;;;;;;2.17;1.73;;;3.30;99.90;;;;;;7343055;19;108685;-90
2022/04/01 02:54:52;;;;;;;2.40;2.10;;;3.30;99.90;;;;;;7342870;19;109478;-87
2022/04/01 02:57:20;;;;;;;2.50;2.30;;;3.30;99.90;;;;;;7342084;19;110826;-89
2022/04/01 02:59:48;;;;;;;3.30;2.10;;;3.30;99.90;;;;;;7341716;19;108855;-89
2022/04/01 03:02:15;;;;;;;2.00;1.80;;;3.20;99.90;;;;;;7349394;19;108353;-90
2022/04/01 03:04:43;;;;;;;2.47;2.07;;;3.20;99.90;;;;;;7338249;19;109294;-88
2022/04/01 03:07:10;;;;;;;2.93;2.20;;;3.20;99.90;;;;;;7342485;19;109442;-89
2022/04/01 03:09:37;;;;;;;2.57;1.97;;;3.20;99.90;;;;;;7340882;19;111001;-89
2022/04/01 03:12:07;;;;;;;2.60;2.30;;;3.20;99.90;;;;;;7341126;19;108444;-90
2022/04/01 03:14:34;;;;;;;2.30;2.10;;;3.10;99.90;;;;;;7340515;19;111897;-89
2022/04/01 03:17:01;;;;;;;2.43;2.10;;;3.10;99.90;;;;;;7336916;19;109739;-89
2022/04/01 03:19:28;;;;;;;4.10;2.30;;;3.10;99.90;;;;;;7338976;19;108615;-88
2022/04/01 03:21:57;;;;;;;2.30;2.10;;;3.10;99.90;;;;;;7346035;19;109414;-88
2022/04/01 03:24:24;;;;;;;2.47;2.23;;;3.10;99.90;;;;;;7340364;19;110149;-88
2022/04/01 03:26:52;;;;;;;2.30;2.10;;;3.10;99.90;;;;;;7338266;19;111129;-90
2022/04/01 03:29:19;;;;;;;2.63;2.13;;;3.10;99.90;;;;;;7342288;19;110161;-88
2022/04/01 03:31:47;;;;;;;2.80;2.17;;;3.10;99.90;;;;;;7340207;19;108364;-89
2022/04/01 03:34:14;;;;;;;2.70;2.27;;;3.10;99.90;;;;;;7341774;19;109271;-87
2022/04/01 03:36:42;;;;;;;4.23;2.20;;;3.10;99.90;;;;;;7340862;19;110506;-88
2022/04/01 03:39:09;;;;;;;2.83;2.30;;;3.10;99.90;;;;;;7340802;19;109434;-89
2022/04/01 03:41:37;;;;;;;3.93;2.00;;;3.10;99.90;;;;;;7339211;19;109574;-88
2022/04/01 03:44:04;;;;;;;2.30;2.00;;;3.10;99.90;;;;;;7346165;19;110741;-88
2022/04/01 03:47:00;;;;;;;2.47;2.20;;;3.10;99.90;;;;;;7336851;19;110066;-88
2022/04/01 03:49:31;;;;;;;2.50;1.93;;;3.20;99.90;;;;;;7339415;19;110486;-89
2022/04/01 03:52:00;;;;;;;3.10;2.23;;;3.10;99.90;;;;;;7336824;19;108857;-89
2022/04/01 03:54:28;;;;;;;6.03;2.00;;;3.10;99.90;;;;;;7339108;19;108301;-88
2022/04/01 03:56:59;;;;;;;4.77;2.33;;;3.10;99.90;;;;;;7336985;19;110217;-88
2022/04/01 03:59:40;;;;;;;4.70;2.37;;;3.10;99.90;;;;;;7339365;19;108522;-88
2022/04/01 04:02:12;;;;;;;4.57;2.40;;;3.10;99.90;;;;;;7336587;19;109679;-88
2022/04/01 04:04:40;;;;;;;5.17;2.60;;;3.00;99.90;;;;;;7335382;19;109450;-88
2022/04/01 04:07:09;;;;;;;2.50;2.17;;;3.00;99.90;;;;;;7342245;19;108288;-88
2022/04/01 04:09:40;;;;;;;2.30;2.10;;;3.00;99.90;;;;;;7338319;19;109752;-88
2022/04/01 04:12:15;;;;;;;3.87;2.77;;;3.00;99.90;;;;;;7336356;19;108622;-89
2022/04/01 04:14:43;;;;;;;3.30;2.70;;;2.90;99.90;;;;;;7339227;19;109454;-88
2022/04/01 04:17:16;;;;;;;3.57;2.57;;;3.00;99.90;;;;;;7334464;19;110309;-88
2022/04/01 04:19:55;;;;;;;2.93;2.53;;;3.00;99.90;;;;;;7335967;19;108781;-88
2022/04/01 04:22:49;;;;;;;3.80;2.50;;;3.00;99.90;;;;;;7337464;19;109147;-88
2022/04/01 04:25:21;;;;;;;2.50;2.30;;;2.90;99.90;;;;;;7337878;19;110154;-87
2022/04/01 04:27:58;;;;;;;2.97;2.67;;;2.90;99.90;;;;;;7338849;19;108463;-87
2022/04/01 04:30:32;;;;;;;4.83;3.03;;;2.80;99.90;;;;;;7343577;19;109845;-87
2022/04/01 04:33:09;;;;;;;3.00;2.63;;;2.80;99.90;;;;;;7339108;19;108118;-86
2022/04/01 04:35:38;;;;;;;3.33;3.03;;;2.80;99.90;;;;;;7339984;19;110157;-88
2022/04/01 04:38:07;;;;;;;3.60;3.30;;;2.70;99.90;;;;;;7335401;19;111710;-88
2022/04/01 04:40:35;;;;;;;6.33;3.13;;;2.80;99.90;;;;;;7340216;19;109543;-88
2022/04/01 04:43:03;;;;;;;4.03;3.57;;;2.80;99.90;;;;;;7345283;19;112185;-88
2022/04/01 04:45:30;;;;;;;3.73;3.43;;;2.80;99.90;;;;;;7345800;19;112159;-88
2022/04/01 04:47:58;;;;;;;4.07;3.43;;;2.80;99.90;;;;;;7345907;19;108703;-87
2022/04/01 04:50:25;;;;;;;4.90;3.40;;;2.80;99.90;;;;;;7346411;19;109256;-88
2022/04/01 04:52:55;;;;;;;4.27;3.63;;;2.80;99.90;;;;;;7351718;19;110201;-87
2022/04/01 04:55:23;;;;;;;4.17;3.70;;;2.80;99.90;;;;;;7344720;19;109403;-87
2022/04/01 04:57:51;;;;;;;4.00;3.60;;;2.80;99.90;;;;;;7343369;19;109613;-87
2022/04/01 05:00:20;;;;;;;3.83;3.53;;;2.70;99.90;;;;;;7343383;19;109534;-86
2022/04/01 05:03:09;;;;;;;4.83;3.83;;;2.70;99.90;;;;;;7344785;19;109641;-87
2022/04/01 05:05:49;;;;;;;4.20;3.80;;;2.70;99.90;;;;;;7345265;19;109364;-87
2022/04/01 05:08:53;;;;;;;5.13;3.37;;;2.70;99.90;;;;;;7345511;19;108206;-87
2022/04/01 05:11:23;;;;;;;4.33;3.70;;;2.60;99.90;;;;;;7346612;19;109196;-88
2022/04/01 05:14:00;;;;;;;3.73;3.37;;;2.70;99.90;;;;;;7345177;19;109954;-87
2022/04/01 05:16:54;;;;;;;4.93;3.13;;;2.60;99.90;;;;;;7349611;19;109838;-85
2022/04/01 05:19:29;;;;;;;3.80;3.40;;;2.60;99.90;;;;;;7344282;19;110147;-87
2022/04/01 05:22:06;;;;;;;3.73;3.33;;;2.60;99.90;;;;;;7343862;19;111298;-87
2022/04/01 05:24:39;;;;;;;4.28;3.50;;;2.50;99.90;;;;;;7346619;19;108560;-86
2022/04/01 05:27:15;;;;;;;3.80;3.50;;;2.50;99.90;;;;;;7345944;19;108413;-88
2022/04/01 05:29:43;;;;;;;4.60;3.90;;;2.50;99.90;;;;;;7346638;19;108379;-87
2022/04/01 05:32:10;;;;;;;4.00;3.60;;;2.50;99.90;;;;;;7343259;19;111201;-87
2022/04/01 05:34:47;;;;;;;3.67;3.37;;;2.50;99.90;;;;;;7346904;19;110613;-87
2022/04/01 05:37:16;;;;;;;5.07;3.75;;;2.50;99.90;;;;;;7348562;19;108530;-88
2022/04/01 05:39:46;;;;;;;4.17;3.77;;;2.50;99.90;;;;;;7345364;19;112628;-88
2022/04/01 05:42:14;;;;;;;5.80;3.97;;;2.40;99.90;;;;;;7344631;19;109285;-86
2022/04/01 05:44:43;;;;;;;9.10;4.40;;;2.40;99.90;;;;;;7345528;19;110059;-89
2022/04/01 05:47:10;;;;;;;3.83;3.43;;;2.50;99.90;;;;;;7343739;19;110652;-85
2022/04/01 05:49:43;;;;;;;4.90;3.90;;;2.40;99.90;;;;;;7345312;19;108447;-87
2022/04/01 05:52:11;;;;;;;5.23;3.80;;;2.50;99.90;;;;;;7336936;19;109837;-87
2022/04/01 05:54:39;;;;;;;5.60;4.13;;;2.50;99.90;;;;;;7344660;19;110981;-86
2022/04/01 05:57:10;;;;;;;7.20;4.20;;;2.40;99.90;;;;;;7341892;19;109490;-87
2022/04/01 05:59:38;;;;;;;5.10;4.10;;;2.50;99.90;;;;;;7349430;19;109870;-86
2022/04/01 06:02:05;;;;;;;4.47;3.90;;;2.40;99.90;;;;;;7344752;19;109237;-88
2022/04/01 06:04:44;;;;;;;4.30;3.50;;;2.50;99.90;;;;;;7341482;19;110702;-86
2022/04/01 06:07:23;;;;;;;4.20;3.77;;;2.50;99.90;;;;;;7342525;19;109816;-87
2022/04/01 06:09:58;;;;;;;4.10;3.70;;;2.40;99.90;;;;;;7342911;19;109211;-87
2022/04/01 06:13:08;;;;;;;5.57;4.07;;;2.50;99.90;;;;;;7340882;19;109291;-87
2022/04/01 06:16:00;;;;;;;5.10;4.27;;;2.50;99.90;;;;;;7342046;19;110518;-92
2022/04/01 06:19:06;;;;;;;4.80;3.80;;;2.50;99.90;;;;;;7347305;19;108668;-92
2022/04/01 06:21:39;;;;;;;4.27;3.70;;;2.50;99.90;;;;;;7345705;19;109928;-91
2022/04/01 06:24:08;;;;;;;6.00;3.73;;;2.60;99.90;;;;;;7353141;19;110625;-92
2022/04/01 06:26:46;;;;;;;3.93;3.47;;;2.60;99.90;;;;;;7347003;19;108949;-87
2022/04/01 06:29:40;;;;;;;5.77;4.00;;;2.60;99.90;;;;;;7341359;19;110547;-89
2022/04/01 06:32:12;;;;;;;5.30;4.03;;;2.60;99.90;;;;;;7340331;19;108865;-88
2022/04/01 06:35:14;;;;;;;8.90;4.03;;;2.50;99.90;;;;;;7340010;19;108540;-87
2022/04/01 06:38:02;;;;;;;4.57;3.70;;;2.50;99.90;;;;;;7341286;19;110565;-88
2022/04/01 06:40:45;;;;;;;4.37;3.97;;;2.50;99.90;;;;;;7342030;19;109663;-88
2022/04/01 06:43:12;;;;;;;5.00;4.47;;;2.40;99.90;;;;;;7339548;19;109714;-88
2022/04/01 06:45:40;;;;;;;3.90;3.33;;;2.50;99.90;;;;;;7340959;19;110080;-88
2022/04/01 06:48:07;;;;;;;9.87;4.70;;;2.50;99.90;;;;;;7345160;19;108888;-89
2022/04/01 06:50:36;;;;;;;6.03;4.60;;;2.50;99.90;;;;;;7336572;19;110200;-87
2022/04/01 06:53:04;;;;;;;6.23;4.30;;;2.50;99.90;;;;;;7339433;19;111991;-87
2022/04/01 06:55:31;;;;;;;5.47;4.83;;;2.50;99.90;;;;;;7342111;19;109190;-88
2022/04/01 06:57:58;;;;;;;5.33;4.37;;;2.60;99.90;;;;;;7341628;19;110008;-90
2022/04/01 07:00:26;;;;;;;6.27;4.20;;;2.60;99.90;;;;;;7342514;19;108883;-87
2022/04/01 07:02:53;;;;;;;5.27;3.73;;;2.60;99.90;;;;;;7340583;19;108838;-89
2022/04/01 07:05:20;;;;;;;8.70;3.90;;;2.60;99.90;;;;;;7339339;19;112727;-87
2022/04/01 07:07:47;;;;;;;5.60;4.10;;;2.50;99.90;;;;;;7339026;19;109509;-86
2022/04/01 07:10:14;;;;;;;5.93;4.10;;;2.40;99.90;;;;;;7343883;19;109763;-87
2022/04/01 07:12:42;;;;;;;5.30;4.43;;;2.50;99.90;;;;;;7339283;19;109610;-87
2022/04/01 07:15:10;;;;;;;5.30;4.00;;;2.50;99.90;;;;;;7339758;19;112102;-86
2022/04/01 07:17:39;;;;;;;5.20;3.77;;;2.40;99.90;;;;;;7340657;19;111124;-86
2022/04/01 07:20:12;;;;;;;4.40;4.00;;;2.50;99.90;;;;;;7341859;19;108501;-86
2022/04/01 07:22:48;;;;;;;3.80;3.40;;;2.50;99.90;;;;;;7338795;19;109272;-87
2022/04/01 07:25:16;;;;;;;4.77;3.83;;;2.50;99.90;;;;;;7340199;19;109888;-87
2022/04/01 07:27:43;;;;;;;4.23;3.60;;;2.50;99.90;;;;;;7337940;19;109101;-88
2022/04/01 07:30:10;;;;;;;3.83;3.47;;;2.50;99.90;;;;;;7342483;19;109221;-86
2022/04/01 07:32:39;;;;;;;6.50;3.83;;;2.50;99.90;;;;;;7337923;19;109463;-89
2022/04/01 07:35:11;;;;;;;4.47;3.60;;;2.50;99.90;;;;;;7337447;19;110559;-86
2022/04/01 07:37:39;;;;;;;4.60;3.70;;;2.50;99.90;;;;;;7337929;19;109585;-85
2022/04/01 07:40:24;;;;;;;5.07;3.40;;;2.50;99.90;;;;;;7338924;19;108408;-87
2022/04/01 07:42:52;;;;;;;4.53;3.50;;;2.60;99.90;;;;;;7338036;19;109016;-85
2022/04/01 07:45:23;;;;;;;5.47;3.40;;;2.50;99.90;;;;;;7335482;19;109086;-85
2022/04/01 07:47:51;;;;;;;6.07;2.97;;;2.60;99.90;;;;;;7337740;19;108756;-88
2022/04/01 07:50:20;;;;;;;6.30;3.20;;;2.50;99.90;;;;;;7341311;19;110030;-90
2022/04/01 07:52:47;;;;;;;5.50;2.93;;;2.50;99.90;;;;;;7343864;19;110318;-87
2022/04/01 07:55:17;;;;;;;8.23;3.10;;;2.40;99.90;;;;;;7337639;19;109973;-88
2022/04/01 07:57:48;;;;;;;4.90;3.57;;;2.50;99.90;;;;;;7338375;19;109913;-90
2022/04/01 08:00:33;;;;;;;3.87;3.10;;;2.50;99.90;;;;;;7340351;19;108390;-87
2022/04/01 08:03:00;;;;;;;5.87;2.63;;;2.50;99.90;;;;;;7338274;19;108694;-87
2022/04/01 08:05:27;;;;;;;4.33;3.13;;;2.50;99.90;;;;;;7337024;19;111162;-87
2022/04/01 08:07:54;;;;;;;4.13;3.37;;;2.50;99.90;;;;;;7339226;19;108371;-88
2022/04/01 08:10:21;;;;;;;4.03;2.73;;;2.50;99.90;;;;;;7339319;19;109361;-89
2022/04/01 08:12:48;;;;;;;3.50;2.77;;;2.50;99.90;;;;;;7336973;19;110062;-89
2022/04/01 08:15:15;;;;;;;6.50;2.83;;;2.60;99.90;;;;;;7345697;19;109545;-89
2022/04/01 08:17:42;;;;;;;7.27;3.00;;;2.50;99.90;;;;;;7347275;19;113298;-88
2022/04/01 08:20:12;;;;;;;3.97;2.80;;;2.60;99.90;;;;;;7343750;19;111011;-88
2022/04/01 08:22:40;;;;;;;4.93;2.90;;;2.70;99.90;;;;;;7346753;19;109534;-89
2022/04/01 08:25:08;;;;;;;3.90;3.03;;;2.60;99.90;;;;;;7346337;19;111941;-89
2022/04/01 08:27:35;;;;;;;3.53;2.53;;;2.60;99.90;;;;;;7346400;19;108572;-88
2022/04/01 08:30:02;;;;;;;5.47;2.90;;;2.60;99.90;;;;;;7348328;19;111799;-90
2022/04/01 08:32:30;;;;;;;5.70;3.13;;;2.70;99.90;;;;;;7344524;19;109988;-90
2022/04/01 08:34:58;;;;;;;5.33;3.33;;;2.70;99.90;;;;;;7344598;19;108680;-90
2022/04/01 08:37:25;;;;;;;4.83;2.60;;;2.70;99.90;;;;;;7349365;19;109636;-90
2022/04/01 08:39:53;;;;;;;3.93;2.50;;;2.80;99.90;;;;;;7346659;19;109330;-88
2022/04/01 08:42:21;;;;;;;3.67;2.70;;;2.70;99.90;;;;;;7341770;19;110432;-90
2022/04/01 08:44:51;;;;;;;7.57;2.70;;;2.70;99.90;;;;;;7344598;19;109527;-90
2022/04/01 08:47:19;;;;;;;3.27;2.50;;;2.70;99.90;;;;;;7345209;19;110336;-88
2022/04/01 08:49:46;;;;;;;3.67;2.83;;;2.80;99.90;;;;;;7347308;19;112422;-89
2022/04/01 08:52:13;;;;;;;4.77;2.47;;;2.80;99.90;;;;;;7344032;19;109253;-90
2022/04/01 08:54:41;;;;;;;3.23;2.30;;;2.80;99.90;;;;;;7345645;19;109444;-89
2022/04/01 08:57:08;;;;;;;4.37;3.07;;;2.80;99.90;;;;;;7345525;19;108961;-89
2022/04/01 08:59:37;;;;;;;5.07;2.63;;;2.80;99.90;;;;;;7349614;19;109346;-89
2022/04/01 09:02:09;;;;;;;6.10;3.10;;;2.90;99.90;;;;;;7346233;19;109208;-89
2022/04/01 09:04:37;;;;;;;7.30;2.97;;;2.90;99.90;;;;;;7343872;19;111867;-89
2022/04/01 09:07:14;;;;;;;4.23;2.43;;;2.90;99.90;;;;;;7343895;19;108492;-89
2022/04/01 09:09:41;;;;;;;8.00;2.57;;;2.90;99.90;;;;;;7346507;19;112969;-90
2022/04/01 09:12:14;;;;;;;4.30;2.70;;;2.90;99.90;;;;;;7347035;19;112660;-89
2022/04/01 09:14:54;;;;;;;3.50;2.57;;;2.90;99.90;;;;;;7344553;19;108427;-89
2022/04/01 09:17:22;;;;;;;4.40;2.37;;;2.90;99.90;;;;;;7344253;19;109447;-89
2022/04/01 09:20:06;;;;;;;4.10;2.60;;;2.90;99.90;;;;;;7344685;19;112940;-88
2022/04/01 09:22:34;;;;;;;3.90;2.50;;;2.90;99.90;;;;;;7346235;19;109684;-88
2022/04/01 09:25:05;;;;;;;5.57;2.70;;;2.90;99.90;;;;;;7340495;19;111487;-87
2022/04/01 09:27:44;;;;;;;3.93;2.73;;;2.90;99.90;;;;;;7344623;19;109719;-91
2022/04/01 09:30:32;;;;;;;4.10;2.40;;;2.80;99.90;;;;;;7348478;19;112192;-91
2022/04/01 09:33:01;;;;;;;3.55;2.63;;;2.90;99.90;;;;;;7344633;19;111318;-90
2022/04/01 09:35:32;;;;;;;3.03;2.23;;;2.90;99.90;;;;;;7347343;19;108549;-91
2022/04/01 09:38:04;;;;;;;4.50;2.70;;;2.90;99.90;;;;;;7346992;19;109564;-89
2022/04/01 09:40:35;;;;;;;3.77;2.40;;;2.80;99.90;;;;;;7346331;19;112306;-90
2022/04/01 09:43:07;;;;;;;2.77;2.17;;;2.80;99.90;;;;;;7351817;19;110547;-89
2022/04/01 09:45:36;;;;;;;4.17;2.37;;;2.80;99.90;;;;;;7348304;19;112576;-90
2022/04/01 09:48:08;;;;;;;3.20;2.07;;;2.70;99.90;;;;;;7349988;19;108533;-91
2022/04/01 09:50:39;;;;;;;3.73;2.27;;;2.80;99.90;;;;;;7349871;19;109251;-91
2022/04/01 09:53:14;;;;;;;6.20;2.13;;;2.80;99.90;;;;;;7346629;19;109642;-91
2022/04/01 09:55:46;;;;;;;3.97;2.10;;;2.80;99.90;;;;;;7348341;19;109068;-91
2022/04/01 09:58:15;;;;;;;3.67;2.13;;;2.90;99.90;;;;;;7345410;19;108632;-90
2022/04/01 10:00:44;;;;;;;2.37;1.70;;;2.80;99.90;;;;;;7349647;19;110218;-93
2022/04/01 10:03:12;;;;;;;2.23;1.73;;;2.80;99.90;;;;;;7346208;19;110411;-92
2022/04/01 10:05:41;;;;;;;5.93;2.10;;;2.80;99.90;;;;;;7352507;19;109537;-91
2022/04/01 10:08:10;;;;;;;3.90;1.80;;;2.90;99.90;;;;;;7348099;19;108396;-91
2022/04/01 10:10:40;;;;;;;2.40;1.97;;;2.90;99.90;;;;;;7348068;19;109853;-90
2022/04/01 10:13:40;;;;;;;4.53;2.57;;;3.00;99.90;;;;;;7346014;19;111234;-91
2022/04/01 10:16:09;;;;;;;3.63;2.10;;;3.10;99.90;;;;;;7346047;19;108522;-91
2022/04/01 10:18:50;;;;;;;2.73;1.90;;;3.10;99.90;;;;;;7350002;19;109586;-91
2022/04/01 10:21:20;;;;;;;2.13;1.70;;;3.20;99.90;;;;;;7348181;19;111339;-90
2022/04/01 10:24:06;;;;;;;3.03;1.60;;;3.20;99.90;;;;;;7347125;19;108169;-92
2022/04/01 10:26:35;;;;;;;4.70;2.03;;;3.20;99.90;;;;;;7347568;19;109463;-88
2022/04/01 10:29:03;;;;;;;2.73;1.90;;;3.10;99.90;;;;;;7354145;19;109699;-91
2022/04/01 10:31:30;;;;;;;2.60;1.80;;;3.10;99.90;;;;;;7346088;19;112305;-91
2022/04/01 10:34:20;;;;;;;6.10;2.33;;;3.10;99.90;;;;;;7347174;19;110763;-91
2022/04/01 10:37:00;;;;;;;2.80;1.47;;;3.10;99.90;;;;;;7347168;19;108329;-92
2022/04/01 10:39:28;;;;;;;3.00;1.93;;;3.10;99.90;;;;;;7345240;19;110514;-91
2022/04/01 10:42:10;;;;;;;2.67;1.40;;;3.20;99.90;;;;;;7348170;19;110444;-89
2022/04/01 10:44:52;;;;;;;2.80;1.30;;;3.30;99.90;;;;;;7346136;19;108334;-91
2022/04/01 10:53:39;;;;;;;2.50;1.30;;;3.50;99.90;;;;;;7351080;19;108520;-91
2022/04/01 10:56:24;;;;;;;2.50;1.20;;;3.40;99.90;;;;;;7346374;19;109418;-92
2022/04/01 10:59:13;;;;;;;;;;;3.40;99.90;;;;;;7346330;19;108411;-90
2022/04/01 11:01:52;;;;;;;2.77;1.30;;;3.40;99.90;;;;;;7351596;19;109196;-91
2022/04/01 11:04:19;;;;;;;2.77;1.20;;;3.60;99.90;;;;;;7345236;19;110335;-90
2022/04/01 11:06:52;;;;;;;6.90;1.60;;;3.60;99.90;;;;;;7345687;19;109450;-88
2022/04/01 11:09:39;;;;;;;4.43;1.53;;;3.70;99.90;;;;;;7344738;19;108315;-89
2022/04/01 11:12:15;;;;;;;2.20;1.40;;;3.80;99.90;;;;;;7346179;19;112204;-90
2022/04/01 11:14:58;;;;;;;2.77;1.07;;;3.80;99.90;;;;;;7343314;19;108172;-91
2022/04/01 11:17:35;;;;;;;3.03;1.33;;;3.80;99.90;;;;;;7352489;19;109205;-90
2022/04/01 11:20:12;;;;;;;2.57;1.63;;;3.80;99.90;;;;;;7347067;19;109237;-91
2022/04/01 11:22:46;;;;;;;3.22;1.35;;;3.90;99.90;;;;;;7346329;19;109158;-89
2022/04/01 11:25:38;;;;;;;2.87;1.60;;;3.80;99.90;;;;;;7348018;19;110178;-92
2022/04/01 11:28:11;;;;;;;2.33;1.37;;;4.00;99.90;;;;;;7345691;19;109337;-90
2022/04/01 11:30:41;;;;;;;1.63;1.20;;;4.00;99.90;;;;;;7345378;19;109560;-90
2022/04/01 11:33:12;;;;;;;3.37;1.30;;;4.10;99.90;;;;;;7345322;19;110645;-86
2022/04/01 11:35:44;;;;;;;2.73;1.60;;;4.00;99.90;;;;;;7343086;19;108384;-91
2022/04/01 11:38:14;;;;;;;3.20;1.30;;;4.00;99.90;;;;;;7346035;19;109267;-92
2022/04/01 11:40:43;;;;;;;4.23;1.50;;;4.00;99.90;;;;;;7350888;19;109067;-92
2022/04/01 11:43:15;;;;;;;4.70;1.47;;;4.10;99.90;;;;;;7346520;19;109772;-90
2022/04/01 11:45:57;;;;;;;2.17;1.40;;;4.10;99.90;;;;;;7345917;19;110244;-90
2022/04/01 11:48:29;;;;;;;3.97;1.60;;;4.10;99.90;;;;;;7345164;19;108871;-92
2022/04/01 11:51:05;;;;;;;2.70;1.60;;;4.20;99.90;;;;;;7352127;19;109766;-91
2022/04/01 11:53:49;;;;;;;4.43;1.50;;;4.10;99.90;;;;;;7352439;19;110347;-92
2022/04/01 11:56:19;;;;;;;2.37;1.33;;;4.10;99.90;;;;;;7351836;19;108492;-90
2022/04/01 11:58:52;;;;;;;4.57;1.97;;;4.10;99.90;;;;;;7352731;19;110718;-93
2022/04/01 12:01:22;;;;;;;5.07;1.90;;;4.20;99.90;;;;;;7359704;19;110086;-92
2022/04/01 12:03:49;;;;;;;2.57;1.60;;;4.20;99.90;;;;;;7352422;19;109138;-89
2022/04/01 12:09:07;;;;;;;2.90;1.77;;;4.30;99.90;;;;;;7350725;19;108928;-91
2022/04/01 12:11:47;;;;;;;3.50;1.73;;;4.30;99.90;;;;;;7351011;19;111973;-90
2022/04/01 12:14:24;;;;;;;6.30;1.80;;;4.30;99.90;;;;;;7350467;19;113657;-92
2022/04/01 12:16:51;;;;;;;3.63;1.80;;;4.40;99.90;;;;;;7351196;19;108365;-91
2022/04/01 12:19:20;;;;;;;4.97;1.90;;;4.30;99.90;;;;;;7349323;19;110303;-88
2022/04/01 12:21:50;;;;;;;3.77;1.90;;;4.20;99.90;;;;;;7348608;19;109541;-88
2022/04/01 12:24:18;;;;;;;3.43;1.87;;;4.10;99.90;;;;;;7356502;19;108472;-89
2022/04/01 12:26:48;;;;;;;3.83;1.87;;;4.10;99.90;;;;;;7348939;19;112098;-89
2022/04/01 12:29:26;;;;;;;2.53;1.77;;;4.10;99.90;;;;;;7350198;19;108099;-88
2022/04/01 12:32:07;;;;;;;2.80;2.07;;;4.00;99.90;;;;;;7347555;19;112846;-88
2022/04/01 12:34:34;;;;;;;4.47;1.90;;;4.00;99.90;;;;;;7346087;19;112866;-87
2022/04/01 12:37:04;;;;;;;2.63;2.00;;;4.20;99.90;;;;;;7347995;19;108606;-87
2022/04/01 12:39:34;;;;;;;5.80;2.50;;;4.30;99.90;;;;;;7348163;19;108461;-89
2022/04/01 12:42:09;;;;;;;3.17;2.20;;;4.20;99.90;;;;;;7350076;19;110177;-89
2022/04/01 12:44:40;;;;;;;5.77;2.80;;;4.20;99.90;;;;;;7348865;19;108647;-88
2022/04/01 12:47:08;;;;;;;5.17;2.33;;;4.20;99.90;;;;;;7352754;19;109153;-88
2022/04/01 12:49:40;;;;;;;3.73;1.77;;;4.20;99.90;;;;;;7348114;19;108402;-88
2022/04/01 12:52:15;;;;;;;6.57;2.23;;;4.20;99.90;;;;;;7348130;19;109927;-87
2022/04/01 12:54:49;;;;;;;6.37;2.60;;;4.20;99.90;;;;;;7347536;19;109477;-89
2022/04/01 12:57:19;;;;;;;4.43;2.27;;;4.30;99.90;;;;;;7349224;19;108456;-87
2022/04/01 12:59:49;;;;;;;5.40;2.40;;;4.30;99.90;;;;;;7349726;19;111428;-91
2022/04/01 13:02:23;;;;;;;4.53;2.60;;;4.30;99.90;;;;;;7346524;19;111053;-86
2022/04/01 13:04:56;;;;;;;6.93;2.87;;;4.30;99.90;;;;;;7345481;19;109424;-89
2022/04/01 13:07:34;;;;;;;3.90;2.40;;;4.40;99.90;;;;;;7344620;19;111266;-89
2022/04/01 13:10:13;;;;;;;5.77;2.53;;;4.30;99.90;;;;;;7350325;19;109959;-88
2022/04/01 13:12:46;;;;;;;4.83;2.33;;;4.30;99.90;;;;;;7346131;19;110448;-88
2022/04/01 13:15:13;;;;;;;6.70;2.53;;;4.30;99.90;;;;;;7343038;19;111639;-87
2022/04/01 13:17:46;;;;;;;3.33;2.43;;;4.30;99.90;;;;;;7346309;19;110536;-88
2022/04/01 13:20:15;;;;;;;6.67;2.80;;;4.20;99.90;;;;;;7345885;19;112039;-88
2022/04/01 13:22:43;;;;;;;3.17;2.27;;;4.30;99.90;;;;;;7346816;19;111377;-88
2022/04/01 13:25:14;;;;;;;4.93;2.73;;;4.30;99.90;;;;;;7346667;19;108256;-86